createdAt,value
2019-03-17T00:01:05.240Z,9.89
2019-03-17T00:03:39.511Z,9.84
2019-03-17T00:06:13.728Z,9.86
2019-03-17T00:08:48.312Z,9.90
2019-03-17T00:11:31.471Z,9.90
2019-03-17T00:14:06.996Z,9.82
2019-03-17T00:16:41.032Z,9.82
2019-03-17T00:19:14.991Z,9.87
2019-03-17T00:21:50.290Z,9.87
2019-03-17T00:24:35.665Z,9.91
2019-03-17T00:27:09.399Z,9.84
2019-03-17T00:29:44.102Z,9.89
2019-03-17T00:32:18.559Z,9.93
2019-03-17T00:34:51.799Z,9.92
2019-03-17T00:37:25.880Z,9.94
2019-03-17T00:40:08.462Z,10.00
2019-03-17T00:42:51.688Z,10.00
2019-03-17T00:45:25.143Z,9.99
2019-03-17T00:48:11.002Z,10.03
2019-03-17T00:50:44.808Z,9.96
2019-03-17T00:53:19.201Z,9.96
2019-03-17T00:56:03.802Z,10.02
2019-03-17T00:58:38.481Z,9.94
2019-03-17T01:01:29.852Z,10.00
2019-03-17T01:04:04.071Z,9.97
2019-03-17T01:06:46.681Z,10.00
2019-03-17T01:09:33.638Z,9.97
2019-03-17T01:12:16.222Z,9.99
2019-03-17T01:14:50.139Z,10.00
2019-03-17T01:17:35.394Z,10.03
2019-03-17T01:20:18.785Z,10.03
2019-03-17T01:23:04.297Z,10.06
2019-03-17T01:25:55.878Z,10.04
2019-03-17T01:28:29.739Z,9.98
2019-03-17T01:31:18.796Z,10.07
2019-03-17T01:34:02.085Z,10.08
2019-03-17T01:36:36.454Z,9.99
2019-03-17T01:39:10.832Z,10.04
2019-03-17T01:41:45.186Z,10.03
2019-03-17T01:44:19.427Z,10.05
2019-03-17T01:47:05.380Z,10.08
2019-03-17T01:49:39.566Z,9.99
2019-03-17T01:52:25.476Z,10.06
2019-03-17T01:55:08.664Z,10.05
2019-03-17T01:57:43.000Z,10.01
2019-03-17T02:00:17.308Z,9.99
2019-03-17T02:02:51.764Z,9.99
2019-03-17T02:05:36.504Z,10.01
2019-03-17T02:08:18.831Z,9.98
2019-03-17T02:10:53.016Z,9.92
2019-03-17T02:13:42.327Z,9.94
2019-03-17T02:16:16.135Z,9.87
2019-03-17T02:18:50.633Z,9.86
2019-03-17T02:21:41.093Z,9.93
2019-03-17T02:24:25.109Z,9.94
2019-03-17T02:26:59.894Z,9.92
2019-03-17T02:29:33.891Z,9.94
2019-03-17T02:32:07.755Z,9.90
2019-03-17T02:34:41.941Z,9.90
2019-03-17T02:37:24.872Z,9.91
2019-03-17T02:39:58.936Z,9.87
2019-03-17T02:42:43.641Z,9.97
2019-03-17T02:45:35.235Z,9.96
2019-03-17T02:48:23.541Z,9.96
2019-03-17T02:50:58.387Z,9.92
2019-03-17T02:53:32.104Z,9.92
2019-03-17T02:56:05.268Z,9.93
2019-03-17T02:58:39.760Z,9.92
2019-03-17T03:01:17.141Z,9.95
2019-03-17T03:03:50.674Z,9.96
2019-03-17T03:06:39.766Z,10.00
2019-03-17T03:09:13.555Z,9.95
2019-03-17T03:11:47.920Z,9.80
2019-03-17T03:14:32.698Z,10.01
2019-03-17T03:17:06.454Z,9.96
2019-03-17T03:19:49.017Z,10.03
2019-03-17T03:22:23.363Z,9.94
2019-03-17T03:24:57.113Z,9.89
2019-03-17T03:27:30.797Z,9.90
2019-03-17T03:30:04.644Z,9.91
2019-03-17T03:32:38.143Z,9.94
2019-03-17T03:35:12.064Z,9.97
2019-03-17T03:37:47.904Z,9.94
2019-03-17T03:40:33.376Z,9.98
2019-03-17T03:43:06.812Z,9.95
2019-03-17T03:45:40.957Z,9.93
2019-03-17T03:48:14.822Z,9.91
2019-03-17T03:50:48.931Z,9.93
2019-03-17T03:53:31.408Z,9.97
2019-03-17T03:56:14.553Z,9.97
2019-03-17T03:58:57.492Z,9.94
2019-03-17T04:01:45.141Z,9.93
2019-03-17T04:04:19.107Z,9.89
2019-03-17T04:06:52.695Z,9.90
2019-03-17T04:09:26.801Z,9.92
2019-03-17T04:12:02.922Z,9.90
2019-03-17T04:14:37.346Z,9.92
2019-03-17T04:17:11.564Z,9.91
2019-03-17T04:19:45.885Z,9.87
2019-03-17T04:22:30.130Z,9.92
2019-03-17T04:25:16.704Z,9.97
2019-03-17T04:27:50.723Z,9.92
2019-03-17T04:30:24.518Z,9.91
2019-03-17T04:32:58.740Z,9.88
2019-03-17T04:35:54.933Z,9.98
2019-03-17T04:38:28.358Z,9.96
2019-03-17T04:41:17.324Z,10.00
2019-03-17T04:44:00.176Z,9.99
2019-03-17T04:46:43.005Z,9.98
2019-03-17T04:49:25.912Z,10.00
2019-03-17T04:52:08.139Z,10.00
2019-03-17T04:54:41.920Z,9.94
2019-03-17T04:57:25.067Z,9.98
2019-03-17T04:59:59.805Z,9.93
2019-03-17T05:02:34.206Z,9.92
2019-03-17T05:05:08.137Z,9.93
2019-03-17T05:07:42.149Z,9.77
2019-03-17T05:10:15.513Z,9.68
2019-03-17T05:12:49.275Z,9.57
2019-03-17T05:15:23.017Z,9.48
2019-03-17T05:17:56.931Z,9.37
2019-03-17T05:20:42.948Z,9.35
2019-03-17T05:23:18.027Z,9.26
2019-03-17T05:26:03.892Z,9.27
2019-03-17T05:28:48.561Z,9.21
2019-03-17T05:31:33.433Z,9.19
2019-03-17T05:34:17.382Z,9.13
2019-03-17T05:36:51.186Z,8.88
2019-03-17T05:39:34.340Z,9.03
2019-03-17T05:42:16.679Z,9.04
2019-03-17T05:44:50.297Z,9.02
2019-03-17T05:47:24.726Z,8.97
2019-03-17T05:49:59.106Z,8.93
2019-03-17T05:52:32.538Z,8.97
2019-03-17T05:55:06.193Z,8.96
2019-03-17T05:57:40.380Z,8.96
2019-03-17T06:00:30.028Z,9.01
2019-03-17T06:03:03.154Z,8.94
2019-03-17T06:05:36.883Z,9.00
2019-03-17T06:08:10.974Z,8.99
2019-03-17T06:10:45.231Z,8.98
2019-03-17T06:13:27.336Z,9.01
2019-03-17T06:16:01.070Z,8.98
2019-03-17T06:18:35.162Z,8.97
2019-03-17T06:21:17.641Z,8.99
2019-03-17T06:24:02.834Z,8.94
2019-03-17T06:26:46.054Z,8.90
2019-03-17T06:29:31.327Z,8.93
2019-03-17T06:32:13.603Z,8.90
2019-03-17T06:34:46.970Z,8.83
2019-03-17T06:37:30.555Z,8.79
2019-03-17T06:40:00.954Z,8.81
2019-03-17T06:42:44.436Z,8.86
2019-03-17T06:45:27.369Z,8.87
2019-03-17T06:48:12.309Z,8.85
2019-03-17T06:50:58.078Z,8.87
2019-03-17T06:53:41.147Z,8.90
2019-03-17T06:56:14.535Z,8.84
2019-03-17T06:59:00.716Z,8.90
2019-03-17T07:01:46.593Z,8.86
2019-03-17T07:04:35.261Z,8.76
2019-03-17T07:07:17.786Z,8.01
2019-03-17T07:10:02.866Z,7.69
2019-03-17T07:12:52.941Z,7.47
2019-03-17T07:15:36.157Z,7.36
2019-03-17T07:18:11.190Z,7.22
2019-03-17T07:20:45.398Z,7.04
2019-03-17T07:23:18.666Z,6.99
2019-03-17T07:25:53.344Z,6.85
2019-03-17T07:28:27.668Z,6.67
2019-03-17T07:31:02.753Z,6.43
2019-03-17T07:33:36.840Z,6.40
2019-03-17T07:36:19.605Z,6.28
2019-03-17T07:39:11.796Z,6.21
2019-03-17T07:41:56.320Z,6.18
2019-03-17T07:44:30.768Z,6.18
2019-03-17T07:47:04.545Z,6.02
2019-03-17T07:49:38.053Z,6.19
2019-03-17T07:52:11.337Z,6.18
2019-03-17T07:54:45.177Z,6.10
2019-03-17T07:57:20.376Z,6.06
2019-03-17T07:59:59.098Z,6.10
2019-03-17T08:02:32.849Z,6.08
2019-03-17T08:05:06.829Z,6.20
2019-03-17T08:07:51.502Z,6.21
2019-03-17T08:10:25.115Z,6.20
2019-03-17T08:12:58.369Z,6.21
2019-03-17T08:15:32.819Z,6.20
2019-03-17T08:18:21.378Z,6.17
2019-03-17T08:20:54.350Z,6.28
2019-03-17T08:23:40.238Z,6.43
2019-03-17T08:26:24.986Z,6.48
2019-03-17T08:29:11.616Z,6.44
2019-03-17T08:31:46.966Z,6.37
2019-03-17T08:34:21.997Z,6.51
2019-03-17T08:36:55.155Z,6.51
2019-03-17T08:39:40.364Z,6.57
2019-03-17T08:42:13.512Z,6.44
2019-03-17T08:44:47.717Z,6.51
2019-03-17T08:47:29.554Z,6.56
2019-03-17T08:50:11.798Z,6.66
2019-03-17T08:52:44.581Z,6.58
2019-03-17T08:55:29.867Z,6.61
2019-03-17T08:58:11.872Z,6.55
2019-03-17T09:00:45.580Z,6.49
2019-03-17T09:03:19.053Z,6.52
2019-03-17T09:05:52.328Z,6.60
2019-03-17T09:08:35.055Z,6.74
2019-03-17T09:11:01.861Z,6.81
2019-03-17T09:13:35.435Z,6.79
2019-03-17T09:16:21.590Z,7.00
2019-03-17T09:18:58.437Z,6.97
2019-03-17T09:21:34.409Z,6.93
2019-03-17T09:24:17.639Z,7.00
2019-03-17T09:26:51.220Z,7.05
2019-03-17T09:29:24.174Z,7.09
2019-03-17T09:31:58.490Z,7.11
2019-03-17T09:34:32.639Z,7.19
2019-03-17T09:37:06.490Z,7.20
2019-03-17T09:39:48.774Z,7.16
2019-03-17T09:42:22.089Z,7.07
2019-03-17T09:44:55.214Z,7.06
2019-03-17T09:47:29.423Z,7.06
2019-03-17T09:50:04.268Z,7.03
2019-03-17T09:52:38.502Z,6.91
2019-03-17T09:55:11.618Z,6.88
2019-03-17T09:57:46.887Z,6.89
2019-03-17T10:00:20.199Z,6.92
2019-03-17T10:03:03.106Z,7.03
2019-03-17T10:05:37.530Z,7.05
2019-03-17T10:08:10.956Z,7.07
2019-03-17T10:10:44.590Z,7.14
2019-03-17T10:13:18.552Z,7.20
2019-03-17T10:15:51.991Z,7.31
2019-03-17T10:18:25.589Z,7.51
2019-03-17T10:20:59.405Z,7.53
2019-03-17T10:23:33.241Z,7.62
2019-03-17T10:26:15.661Z,7.59
2019-03-17T10:28:49.725Z,7.44
2019-03-17T10:31:31.865Z,7.70
2019-03-17T10:34:06.047Z,7.61
2019-03-17T10:36:50.980Z,7.60
2019-03-17T10:39:25.164Z,7.55
2019-03-17T10:42:00.636Z,7.67
2019-03-17T10:44:33.860Z,7.68
2019-03-17T10:47:07.325Z,7.61
2019-03-17T10:49:40.864Z,7.60
2019-03-17T10:52:14.278Z,7.54
2019-03-17T10:54:48.257Z,7.47
2019-03-17T10:57:21.692Z,7.63
2019-03-17T10:59:55.087Z,7.75
2019-03-17T11:02:28.585Z,7.91
2019-03-17T11:05:10.761Z,8.00
2019-03-17T11:07:44.201Z,7.93
2019-03-17T11:10:17.560Z,8.02
2019-03-17T11:12:51.155Z,8.07
2019-03-17T11:15:24.680Z,8.22
2019-03-17T11:17:58.568Z,8.13
2019-03-17T11:20:31.987Z,8.16
2019-03-17T11:23:07.268Z,8.23
2019-03-17T11:25:40.809Z,8.19
2019-03-17T11:28:14.618Z,8.13
2019-03-17T11:30:58.467Z,8.21
2019-03-17T11:33:44.192Z,8.26
2019-03-17T11:36:17.754Z,8.21
2019-03-17T11:38:51.003Z,8.04
2019-03-17T11:41:24.475Z,7.92
2019-03-17T11:44:01.364Z,7.91
2019-03-17T11:46:34.479Z,7.98
2019-03-17T11:49:16.853Z,8.26
2019-03-17T11:51:50.718Z,8.45
2019-03-17T11:54:32.933Z,8.41
2019-03-17T11:57:06.082Z,8.31
2019-03-17T11:59:40.048Z,8.28
2019-03-17T12:02:25.686Z,8.04
2019-03-17T12:04:49.046Z,7.69
2019-03-17T12:07:22.753Z,7.52
2019-03-17T12:09:56.471Z,7.37
2019-03-17T12:12:30.599Z,7.09
2019-03-17T12:15:14.290Z,6.88
2019-03-17T12:17:47.575Z,6.82
2019-03-17T12:20:20.792Z,6.77
2019-03-17T12:23:02.648Z,6.99
2019-03-17T12:25:35.780Z,7.52
2019-03-17T12:28:09.698Z,7.89
2019-03-17T12:30:43.318Z,7.81
2019-03-17T12:33:23.313Z,8.20
2019-03-17T12:35:57.024Z,8.39
2019-03-17T12:38:30.285Z,8.64
2019-03-17T12:41:03.408Z,8.88
2019-03-17T12:43:51.679Z,9.12
2019-03-17T12:46:25.122Z,9.07
2019-03-17T12:48:58.716Z,8.87
2019-03-17T12:51:32.197Z,8.55
2019-03-17T12:54:06.136Z,7.87
2019-03-17T12:56:39.681Z,6.89
2019-03-17T12:59:13.652Z,6.49
2019-03-17T13:01:59.331Z,6.39
2019-03-17T13:04:32.540Z,6.21
2019-03-17T13:07:05.753Z,6.17
2019-03-17T13:09:40.450Z,6.03
2019-03-17T13:12:13.844Z,5.98
2019-03-17T13:14:56.446Z,5.96
2019-03-17T13:17:42.915Z,5.91
2019-03-17T13:20:16.397Z,5.84
2019-03-17T13:23:20.116Z,5.80
2019-03-17T13:25:53.429Z,5.73
2019-03-17T13:28:35.821Z,5.92
2019-03-17T13:31:09.286Z,5.89
2019-03-17T13:33:44.255Z,5.99
2019-03-17T13:36:17.737Z,6.00
2019-03-17T13:39:06.172Z,5.93
2019-03-17T13:41:39.660Z,6.12
2019-03-17T13:44:14.553Z,6.42
2019-03-17T13:46:48.034Z,6.56
2019-03-17T13:49:21.486Z,6.48
2019-03-17T13:51:55.727Z,6.35
2019-03-17T13:54:29.580Z,6.35
2019-03-17T13:57:16.351Z,6.40
2019-03-17T13:59:49.467Z,6.45
2019-03-17T14:02:23.012Z,6.51
2019-03-17T14:04:56.238Z,6.57
2019-03-17T14:07:38.578Z,6.64
2019-03-17T14:10:14.842Z,6.51
2019-03-17T14:12:48.096Z,6.56
2019-03-17T14:15:21.375Z,6.56
2019-03-17T14:18:06.660Z,6.85
2019-03-17T14:20:39.858Z,6.83
2019-03-17T14:23:13.414Z,6.87
2019-03-17T14:25:46.657Z,7.17
2019-03-17T14:28:19.811Z,7.34
2019-03-17T14:31:07.410Z,7.44
2019-03-17T14:33:40.546Z,7.34
2019-03-17T14:36:23.707Z,7.30
2019-03-17T14:38:57.028Z,7.08
2019-03-17T14:41:40.651Z,7.22
2019-03-17T14:44:14.055Z,7.31
2019-03-17T14:46:47.308Z,7.31
2019-03-17T14:49:20.813Z,7.19
2019-03-17T14:52:05.906Z,7.22
2019-03-17T14:54:48.026Z,7.33
2019-03-17T14:57:21.138Z,7.20
2019-03-17T14:59:54.753Z,7.20
2019-03-17T15:02:27.902Z,7.43
2019-03-17T15:05:10.237Z,7.68
2019-03-17T15:07:43.474Z,7.73
2019-03-17T15:10:17.891Z,7.83
2019-03-17T15:13:03.298Z,8.01
2019-03-17T15:15:36.598Z,8.11
2019-03-17T15:18:23.384Z,8.15
2019-03-17T15:21:07.349Z,8.06
2019-03-17T15:23:57.541Z,7.92
2019-03-17T15:26:40.126Z,7.90
2019-03-17T15:29:24.889Z,7.88
2019-03-17T15:31:57.992Z,7.93
2019-03-17T15:34:41.683Z,7.95
2019-03-17T15:37:14.932Z,7.75
2019-03-17T15:39:48.797Z,7.82
2019-03-17T15:42:44.841Z,7.84
2019-03-17T15:45:18.414Z,7.83
2019-03-17T15:47:51.571Z,7.89
2019-03-17T15:50:24.779Z,7.90
2019-03-17T15:52:58.726Z,7.84
2019-03-17T15:55:31.884Z,7.73
2019-03-17T15:58:14.226Z,7.67
2019-03-17T16:00:47.360Z,7.66
2019-03-17T16:03:31.576Z,7.73
2019-03-17T16:06:14.061Z,8.01
2019-03-17T16:09:00.931Z,8.07
2019-03-17T16:11:35.498Z,7.94
2019-03-17T16:14:17.330Z,7.96
2019-03-17T16:16:51.499Z,7.89
2019-03-17T16:19:34.066Z,7.81
2019-03-17T16:22:07.816Z,7.68
2019-03-17T16:24:41.253Z,7.67
2019-03-17T16:27:15.756Z,7.62
2019-03-17T16:29:49.618Z,7.62
2019-03-17T16:32:23.480Z,7.63
2019-03-17T16:34:57.029Z,7.68
2019-03-17T16:37:30.475Z,7.69
2019-03-17T16:40:04.635Z,7.70
2019-03-17T16:42:37.757Z,7.68
2019-03-17T16:45:11.573Z,7.69
2019-03-17T16:47:51.899Z,7.68
2019-03-17T16:50:25.034Z,7.68
2019-03-17T16:52:58.510Z,7.68
2019-03-17T16:55:34.129Z,7.74
2019-03-17T16:58:07.628Z,7.84
2019-03-17T17:00:40.750Z,7.82
2019-03-17T17:03:20.327Z,7.86
2019-03-17T17:06:02.239Z,7.89
2019-03-17T17:08:35.321Z,7.73
2019-03-17T17:11:23.213Z,7.73
2019-03-17T17:13:56.307Z,7.60
2019-03-17T17:16:30.117Z,7.52
2019-03-17T17:19:03.225Z,7.47
2019-03-17T17:21:47.159Z,7.39
2019-03-17T17:24:21.309Z,7.26
2019-03-17T17:27:03.378Z,7.31
2019-03-17T17:29:36.805Z,7.24
2019-03-17T17:32:10.446Z,7.22
2019-03-17T17:34:43.878Z,7.22
2019-03-17T17:37:17.453Z,7.14
2019-03-17T17:39:50.920Z,7.10
2019-03-17T17:42:24.569Z,7.00
2019-03-17T17:45:11.447Z,7.02
2019-03-17T17:47:47.440Z,6.92
2019-03-17T17:50:21.311Z,6.87
2019-03-17T17:52:54.794Z,6.82
2019-03-17T17:55:30.331Z,6.77
2019-03-17T17:58:03.935Z,6.75
2019-03-17T18:00:39.485Z,6.67
2019-03-17T18:03:23.127Z,6.68
2019-03-17T18:05:56.882Z,6.59
2019-03-17T18:08:30.420Z,6.56
2019-03-17T18:11:04.372Z,6.58
2019-03-17T18:13:37.887Z,6.52
2019-03-17T18:16:11.534Z,6.51
2019-03-17T18:18:48.242Z,6.50
2019-03-17T18:21:21.804Z,6.53
2019-03-17T18:23:57.363Z,6.51
2019-03-17T18:26:33.207Z,6.49
2019-03-17T18:29:17.440Z,6.42
2019-03-17T18:32:03.150Z,6.35
2019-03-17T18:38:05.208Z,6.22
2019-03-17T18:40:42.177Z,6.17
2019-03-17T18:43:30.663Z,6.15
2019-03-17T18:46:05.805Z,6.12
2019-03-17T18:48:41.053Z,6.08
2019-03-17T18:51:14.624Z,6.02
2019-03-17T18:54:07.524Z,6.00
2019-03-17T18:56:41.267Z,6.00
2019-03-17T18:59:18.056Z,5.95
2019-03-17T19:01:52.105Z,5.93
2019-03-17T19:04:30.104Z,5.89
2019-03-17T19:07:03.907Z,5.90
2019-03-17T19:09:45.505Z,5.85
2019-03-17T19:12:18.824Z,5.88
2019-03-17T19:14:51.675Z,5.86
2019-03-17T19:17:33.940Z,5.92
2019-03-17T19:20:08.172Z,5.88
2019-03-17T19:23:00.237Z,5.93
2019-03-17T19:25:38.226Z,5.82
2019-03-17T19:28:11.642Z,5.77
2019-03-17T19:30:47.579Z,5.71
2019-03-17T19:33:21.202Z,5.65
2019-03-17T19:35:55.461Z,5.62
2019-03-17T19:38:44.629Z,5.62
2019-03-17T19:41:34.561Z,5.55
2019-03-17T19:44:19.424Z,5.53
2019-03-17T19:47:02.423Z,5.51
2019-03-17T19:49:47.181Z,5.46
2019-03-17T19:52:22.669Z,5.39
2019-03-17T19:55:04.232Z,5.35
2019-03-17T19:57:37.449Z,5.30
2019-03-17T20:00:13.149Z,5.25
2019-03-17T20:02:47.670Z,5.25
2019-03-17T20:05:21.991Z,5.21
2019-03-17T20:07:57.118Z,5.17
2019-03-17T20:10:31.730Z,5.14
2019-03-17T20:13:11.387Z,5.12
2019-03-17T20:15:39.977Z,5.09
2019-03-17T20:18:22.607Z,5.10
2019-03-17T20:21:04.904Z,5.04
2019-03-17T20:23:38.736Z,5.00
2019-03-17T20:26:11.787Z,4.96
2019-03-17T20:28:47.354Z,4.98
2019-03-17T20:31:21.555Z,4.95
2019-03-17T20:34:03.939Z,4.98
2019-03-17T20:36:37.047Z,4.91
2019-03-17T20:39:10.331Z,4.89
2019-03-17T20:41:43.939Z,4.86
2019-03-17T20:44:17.246Z,4.86
2019-03-17T20:46:59.683Z,4.92
2019-03-17T20:49:34.607Z,4.92
2019-03-17T20:52:07.857Z,4.90
2019-03-17T20:54:43.337Z,4.88
2019-03-17T20:57:16.772Z,4.86
2019-03-17T20:59:50.902Z,4.83
2019-03-17T21:02:24.213Z,4.80
2019-03-17T21:04:58.039Z,4.71
2019-03-17T21:07:31.152Z,4.69
2019-03-17T21:10:04.499Z,4.71
2019-03-17T21:12:38.926Z,4.69
2019-03-17T21:15:12.452Z,4.64
2019-03-17T21:17:50.138Z,4.61
2019-03-17T21:20:23.412Z,4.62
2019-03-17T21:23:07.056Z,4.63
2019-03-17T21:25:58.690Z,4.58
2019-03-17T21:28:37.523Z,4.50
2019-03-17T21:31:19.930Z,4.56
2019-03-17T21:33:53.874Z,4.47
2019-03-17T21:36:35.986Z,4.53
2019-03-17T21:39:09.195Z,4.47
2019-03-17T21:41:43.043Z,4.45
2019-03-17T21:44:16.518Z,4.45
2019-03-17T21:46:51.071Z,4.50
2019-03-17T21:49:33.212Z,4.53
2019-03-17T21:52:06.289Z,4.46
2019-03-17T21:54:48.974Z,4.43
2019-03-17T21:57:22.059Z,4.41
2019-03-17T21:59:56.358Z,4.38
2019-03-17T22:02:38.665Z,4.41
2019-03-17T22:05:12.610Z,4.36
2019-03-17T22:07:55.190Z,4.34
2019-03-17T22:10:30.575Z,4.29
2019-03-17T22:13:15.582Z,4.38
2019-03-17T22:15:56.890Z,4.32
2019-03-17T22:18:42.781Z,4.35
2019-03-17T22:21:36.011Z,4.36
2019-03-17T22:24:17.899Z,4.35
2019-03-17T22:26:51.011Z,4.36
2019-03-17T22:29:24.539Z,4.35
2019-03-17T22:31:58.363Z,4.37
2019-03-17T22:34:31.833Z,4.38
2019-03-17T22:37:05.281Z,4.41
2019-03-17T22:39:38.957Z,4.40
2019-03-17T22:42:14.198Z,4.42
2019-03-17T22:44:47.750Z,4.43
2019-03-17T22:47:21.234Z,4.45
2019-03-17T22:50:09.419Z,4.48
2019-03-17T22:52:43.611Z,4.49
2019-03-17T22:55:25.936Z,4.52
2019-03-17T22:58:01.237Z,4.44
2019-03-17T23:00:44.884Z,4.48
2019-03-17T23:03:26.735Z,4.53
2019-03-17T23:06:00.397Z,4.45
2019-03-17T23:08:33.534Z,4.50
2019-03-17T23:11:08.940Z,4.57
2019-03-17T23:13:42.731Z,4.56
2019-03-17T23:16:26.023Z,4.63
2019-03-17T23:18:59.264Z,4.60
2019-03-17T23:21:34.239Z,4.62
2019-03-17T23:24:07.745Z,4.62
2019-03-17T23:26:40.858Z,4.63
2019-03-17T23:29:22.966Z,4.67
2019-03-17T23:31:59.814Z,4.64
2019-03-17T23:34:33.579Z,4.69
2019-03-17T23:37:07.076Z,4.72
2019-03-17T23:39:40.933Z,4.74
2019-03-17T23:42:14.739Z,4.75
2019-03-17T23:44:57.326Z,4.79
2019-03-17T23:47:30.412Z,4.75
2019-03-17T23:50:03.857Z,4.74
2019-03-17T23:52:37.867Z,4.77
2019-03-17T23:55:11.741Z,4.80
2019-03-17T23:57:45.110Z,4.77
